createdAt,value
2022-11-19T00:04:07.530Z,99782.80
2022-11-19T00:09:14.578Z,99785.07
2022-11-19T00:14:17.442Z,99785.28
2022-11-19T00:19:20.508Z,99786.48
2022-11-19T00:24:23.770Z,99785.96
2022-11-19T00:29:26.661Z,99790.79
2022-11-19T00:34:29.433Z,99795.49
2022-11-19T00:39:32.438Z,99795.45
2022-11-19T00:44:37.383Z,99798.95
2022-11-19T00:49:40.521Z,99796.21
2022-11-19T00:54:43.341Z,99795.91
2022-11-19T00:59:46.117Z,99789.61
2022-11-19T01:04:49.568Z,99791.96
2022-11-19T01:09:53.084Z,99789.67
2022-11-19T01:14:55.920Z,99793.31
2022-11-19T01:19:58.852Z,99794.74
2022-11-19T01:25:01.739Z,99796.11
2022-11-19T01:30:05.563Z,99798.52
2022-11-19T01:35:09.446Z,99797.96
2022-11-19T01:40:13.514Z,99793.47
2022-11-19T01:45:40.275Z,99797.18
2022-11-19T01:50:51.319Z,99795.38
2022-11-19T01:55:55.895Z,99794.63
2022-11-19T02:00:59.020Z,99798.59
2022-11-19T02:06:03.236Z,99793.82
2022-11-19T02:11:29.052Z,99794.23
2022-11-19T02:16:45.010Z,99792.50
2022-11-19T02:21:53.828Z,99789.93
2022-11-19T02:27:18.353Z,99790.50
2022-11-19T02:32:30.275Z,99790.55
2022-11-19T02:37:59.623Z,99783.90
2022-11-19T02:43:16.002Z,99788.83
2022-11-19T02:48:31.214Z,99790.93
2022-11-19T02:53:34.059Z,99797.28
2022-11-19T02:59:05.347Z,99793.88
2022-11-19T03:04:30.107Z,99792.31
2022-11-19T03:09:38.028Z,99791.31
2022-11-19T03:15:22.812Z,99792.10
2022-11-19T03:20:41.121Z,99790.27
2022-11-19T03:25:50.673Z,99788.25
2022-11-19T03:30:56.454Z,99792.62
2022-11-19T03:36:07.719Z,99794.06
2022-11-19T03:41:13.633Z,99792.64
2022-11-19T03:46:20.420Z,99793.48
2022-11-19T03:51:38.572Z,99796.52
2022-11-19T03:56:42.109Z,99791.95
2022-11-19T04:01:48.238Z,99794.02
2022-11-19T04:06:51.176Z,99797.66
2022-11-19T04:16:56.113Z,99797.66
2022-11-19T04:21:58.920Z,99797.27
2022-11-19T04:27:02.578Z,99804.02
2022-11-19T04:32:05.923Z,99805.42
2022-11-19T04:37:08.788Z,99805.82
2022-11-19T04:42:12.151Z,99803.10
2022-11-19T04:47:14.915Z,99805.02
2022-11-19T04:52:17.728Z,99805.55
2022-11-19T04:57:20.505Z,99806.14
2022-11-19T05:02:23.330Z,99800.40
2022-11-19T05:07:26.129Z,99796.09
2022-11-19T05:12:29.055Z,99796.20
2022-11-19T05:17:31.810Z,99789.52
2022-11-19T05:22:34.733Z,99792.82
2022-11-19T05:27:37.533Z,99789.76
2022-11-19T05:32:40.438Z,99788.05
2022-11-19T05:37:43.217Z,99790.52
2022-11-19T05:42:46.015Z,99790.23
2022-11-19T05:47:54.484Z,99790.35
2022-11-19T05:52:58.687Z,99796.38
2022-11-19T05:58:01.490Z,99798.27
2022-11-19T06:03:04.414Z,99808.36
2022-11-19T06:08:07.202Z,99813.90
2022-11-19T06:13:10.940Z,99814.22
2022-11-19T06:18:13.741Z,99823.47
2022-11-19T06:23:16.553Z,99830.09
2022-11-19T06:28:19.450Z,99837.91
2022-11-19T06:33:22.257Z,99845.52
2022-11-19T06:38:25.993Z,99848.77
2022-11-19T06:43:29.248Z,99846.45
2022-11-19T06:48:32.036Z,99852.66
2022-11-19T06:53:35.434Z,99855.42
2022-11-19T06:58:38.417Z,99850.66
2022-11-19T07:03:41.835Z,99845.51
2022-11-19T07:08:44.607Z,99849.96
2022-11-19T07:14:00.232Z,99854.01
2022-11-19T07:19:06.598Z,99850.80
2022-11-19T07:24:10.572Z,99856.69
2022-11-19T07:29:15.312Z,99862.31
2022-11-19T07:34:18.594Z,99856.38
2022-11-19T07:39:21.920Z,99861.91
2022-11-19T07:44:25.171Z,99862.36
2022-11-19T07:49:28.203Z,99858.29
2022-11-19T07:54:30.994Z,99857.07
2022-11-19T07:59:33.811Z,99862.32
2022-11-19T08:04:36.588Z,99869.69
2022-11-19T08:09:39.654Z,99864.10
2022-11-19T08:14:42.426Z,99863.46
2022-11-19T08:19:45.258Z,99864.02
2022-11-19T08:24:48.837Z,99862.38
2022-11-19T08:29:52.193Z,99864.91
2022-11-19T08:34:54.947Z,99867.25
2022-11-19T08:39:57.721Z,99872.73
2022-11-19T08:45:00.590Z,99874.58
2022-11-19T08:50:03.729Z,99875.04
2022-11-19T08:55:08.489Z,99875.23
2022-11-19T09:00:12.498Z,99880.00
2022-11-19T09:05:15.968Z,99875.42
2022-11-19T09:10:19.017Z,99883.67
2022-11-19T09:15:21.803Z,99883.05
2022-11-19T09:20:25.064Z,99883.38
2022-11-19T09:25:29.347Z,99884.88
2022-11-19T09:30:32.614Z,99888.88
2022-11-19T09:35:37.481Z,99889.04
2022-11-19T09:40:45.010Z,99890.97
2022-11-19T09:46:04.177Z,99892.77
2022-11-19T09:51:17.112Z,99892.84
2022-11-19T09:56:33.074Z,99892.55
2022-11-19T10:01:37.391Z,99890.92
2022-11-19T10:07:07.790Z,99891.63
2022-11-19T10:12:32.790Z,99889.31
2022-11-19T10:17:57.461Z,99890.52
2022-11-19T10:23:03.341Z,99891.66
2022-11-19T10:28:24.381Z,99885.27
2022-11-19T10:33:45.652Z,99883.11
2022-11-19T10:39:01.419Z,99883.27
2022-11-19T10:44:40.565Z,99885.52
2022-11-19T10:49:45.468Z,99884.84
2022-11-19T10:54:51.159Z,99885.46
2022-11-19T10:59:56.039Z,99882.20
2022-11-19T11:05:10.960Z,99879.11
2022-11-19T11:10:34.824Z,99877.30
2022-11-19T11:15:46.036Z,99878.16
2022-11-19T11:20:51.485Z,99875.51
2022-11-19T11:26:18.146Z,99872.73
2022-11-19T11:31:30.077Z,99882.38
2022-11-19T11:36:36.704Z,99882.64
2022-11-19T11:47:18.357Z,99877.59
2022-11-19T11:52:34.313Z,99871.09
2022-11-19T11:57:52.233Z,99869.86
2022-11-19T12:03:02.652Z,99878.31
2022-11-19T12:08:12.996Z,99874.67
2022-11-19T12:13:31.388Z,99874.77
2022-11-19T12:18:52.899Z,99875.55
2022-11-19T12:24:22.142Z,99875.53
2022-11-19T12:29:50.070Z,99877.06
2022-11-19T12:35:14.790Z,99871.44
2022-11-19T12:41:07.341Z,99875.08
2022-11-19T12:46:48.875Z,99871.61
2022-11-19T12:52:02.617Z,99872.72
2022-11-19T12:57:48.562Z,99868.14
2022-11-19T13:03:06.879Z,99870.22
2022-11-19T13:08:24.457Z,99878.67
2022-11-19T13:13:30.779Z,99879.05
2022-11-19T13:18:36.852Z,99885.89
2022-11-19T13:23:46.585Z,99889.95
2022-11-19T13:29:22.960Z,99888.10
2022-11-19T13:34:30.838Z,99891.27
2022-11-19T13:39:45.411Z,99891.46
2022-11-19T13:44:48.498Z,99899.05
2022-11-19T13:50:14.286Z,99902.78
2022-11-19T13:55:47.801Z,99902.91
2022-11-19T14:01:22.781Z,99906.46
2022-11-19T14:06:35.852Z,99906.23
2022-11-19T14:11:53.481Z,99912.27
2022-11-19T14:17:25.129Z,99916.38
2022-11-19T14:23:06.175Z,99921.42
2022-11-19T14:28:44.302Z,99928.07
2022-11-19T14:33:49.241Z,99931.66
2022-11-19T14:38:59.402Z,99930.91
2022-11-19T14:44:24.202Z,99934.44
2022-11-19T14:49:33.770Z,99935.19
2022-11-19T14:54:44.464Z,99941.09
2022-11-19T14:59:54.292Z,99940.50
2022-11-19T15:05:03.861Z,99943.88
2022-11-19T15:10:14.586Z,99940.93
2022-11-19T15:15:20.472Z,99936.06
2022-11-19T15:20:57.841Z,99938.05
2022-11-19T15:26:23.073Z,99938.06
2022-11-19T15:31:37.323Z,99941.66
2022-11-19T15:36:45.076Z,99941.14
2022-11-19T15:42:00.873Z,99942.61
2022-11-19T15:47:15.240Z,99942.44
2022-11-19T15:52:19.328Z,99946.33
2022-11-19T15:57:26.389Z,99946.61
2022-11-19T16:02:37.483Z,99945.13
2022-11-19T16:07:40.619Z,99949.73
2022-11-19T16:13:13.660Z,99952.91
2022-11-19T16:18:19.885Z,99957.44
2022-11-19T16:23:26.233Z,99960.13
2022-11-19T16:28:32.825Z,99953.10
2022-11-19T16:33:35.992Z,99951.90
2022-11-19T16:38:41.902Z,99956.64
2022-11-19T16:43:48.960Z,99959.41
2022-11-19T16:48:55.239Z,99960.34
2022-11-19T16:53:58.892Z,99959.84
2022-11-19T16:59:04.507Z,99966.03
2022-11-19T17:04:13.428Z,99971.98
2022-11-19T17:09:41.710Z,99974.58
2022-11-19T17:14:56.648Z,99986.45
2022-11-19T17:19:59.657Z,99985.55
2022-11-19T17:25:04.706Z,99987.42
2022-11-19T17:30:24.335Z,99990.77
2022-11-19T17:35:45.159Z,99994.73
2022-11-19T17:40:50.295Z,99993.41
2022-11-19T17:45:53.156Z,99994.10
2022-11-19T17:50:56.724Z,99985.39
2022-11-19T17:56:02.425Z,99986.66
2022-11-19T18:01:05.910Z,99991.35
2022-11-19T18:06:11.912Z,99994.14
2022-11-19T18:11:24.642Z,99993.27
2022-11-19T18:16:35.651Z,99994.17
2022-11-19T18:21:40.995Z,99994.38
2022-11-19T18:26:44.917Z,99991.23
2022-11-19T18:31:50.976Z,99991.80
2022-11-19T18:36:54.651Z,99997.75
2022-11-19T18:41:57.658Z,99999.60
2022-11-19T18:47:02.482Z,100009.45
2022-11-19T18:52:07.919Z,100010.95
2022-11-19T18:57:12.609Z,100007.88
2022-11-19T19:02:15.576Z,100005.77
2022-11-19T19:07:18.529Z,100001.60
2022-11-19T19:12:22.335Z,100000.55
2022-11-19T19:17:25.947Z,100003.30
2022-11-19T19:22:29.356Z,100004.52
2022-11-19T19:27:32.609Z,100000.69
2022-11-19T19:32:35.469Z,99998.94
2022-11-19T19:37:42.891Z,99998.50
2022-11-19T19:42:45.823Z,99995.83
2022-11-19T19:47:48.664Z,99994.91
2022-11-19T19:52:51.757Z,99992.30
2022-11-19T19:57:55.282Z,99996.98
2022-11-19T20:02:58.451Z,99997.41
2022-11-19T20:08:01.309Z,99999.80
2022-11-19T20:13:23.044Z,99998.09
2022-11-19T20:18:26.666Z,99997.87
2022-11-19T20:23:30.677Z,99998.25
2022-11-19T20:28:34.673Z,99996.35
2022-11-19T20:33:38.625Z,99993.21
2022-11-19T20:38:46.545Z,99993.52
2022-11-19T20:44:08.013Z,99995.42
2022-11-19T20:49:17.661Z,99995.15
2022-11-19T20:54:21.866Z,99996.13
2022-11-19T20:59:26.508Z,99997.31
2022-11-19T21:04:31.494Z,99999.47
2022-11-19T21:09:34.750Z,99997.36
2022-11-19T21:14:37.602Z,99992.28
2022-11-19T21:19:40.550Z,99989.73
2022-11-19T21:24:43.697Z,99990.51
2022-11-19T21:29:46.585Z,99989.31
2022-11-19T21:34:49.660Z,99987.91
2022-11-19T21:39:53.791Z,99987.00
2022-11-19T21:44:56.623Z,99986.31
2022-11-19T21:50:00.895Z,99975.18
2022-11-19T21:55:04.385Z,99974.27
2022-11-19T22:00:08.931Z,99974.84
2022-11-19T22:05:13.266Z,99967.63
2022-11-19T22:10:17.006Z,99968.74
2022-11-19T22:15:20.131Z,99963.79
2022-11-19T22:20:25.215Z,99962.42
2022-11-19T22:25:28.021Z,99964.46
2022-11-19T22:30:30.996Z,99966.66
2022-11-19T22:35:37.764Z,99965.89
2022-11-19T22:40:40.658Z,99966.14
2022-11-19T22:45:46.566Z,99965.09
2022-11-19T22:50:49.371Z,99961.48
2022-11-19T22:55:52.233Z,99965.25
2022-11-19T23:00:55.441Z,99963.39
2022-11-19T23:05:59.676Z,99960.96
2022-11-19T23:11:06.564Z,99960.23
2022-11-19T23:16:18.623Z,99957.33
2022-11-19T23:21:25.062Z,99955.47
2022-11-19T23:26:30.290Z,99950.88
2022-11-19T23:31:35.996Z,99948.14
2022-11-19T23:36:40.823Z,99944.66
2022-11-19T23:41:44.652Z,99938.14
2022-11-19T23:46:47.545Z,99945.09
2022-11-19T23:51:50.383Z,99938.00
2022-11-19T23:56:53.367Z,99933.39
